createdAt,value
2018-12-22T00:01:08.746Z,1.13
2018-12-22T00:03:36.839Z,0.73
2018-12-22T00:06:04.919Z,0.60
2018-12-22T00:08:33.799Z,0.70
2018-12-22T00:11:01.828Z,0.60
2018-12-22T00:13:29.866Z,0.70
2018-12-22T00:15:58.154Z,0.90
2018-12-22T00:18:26.307Z,0.70
2018-12-22T00:20:55.263Z,0.73
2018-12-22T00:23:23.368Z,0.50
2018-12-22T00:25:51.732Z,0.87
2018-12-22T00:28:22.309Z,0.60
2018-12-22T00:30:50.147Z,0.60
2018-12-22T00:33:18.199Z,0.70
2018-12-22T00:35:46.311Z,0.80
2018-12-22T00:38:14.370Z,0.70
2018-12-22T00:40:42.430Z,0.87
2018-12-22T00:43:10.661Z,0.60
2018-12-22T00:45:39.093Z,0.80
2018-12-22T00:48:07.180Z,0.93
2018-12-22T00:50:35.230Z,0.70
2018-12-22T00:53:04.099Z,0.87
2018-12-22T00:55:33.202Z,0.70
2018-12-22T00:58:01.321Z,0.80
2018-12-22T01:00:29.359Z,0.50
2018-12-22T01:02:57.455Z,1.00
2018-12-22T01:05:25.488Z,0.90
2018-12-22T01:07:53.535Z,0.90
2018-12-22T01:10:21.671Z,0.80
2018-12-22T01:12:50.344Z,0.70
2018-12-22T01:15:18.503Z,0.90
2018-12-22T01:17:46.607Z,0.80
2018-12-22T01:20:14.642Z,0.90
2018-12-22T01:22:42.671Z,0.77
2018-12-22T01:25:10.823Z,0.63
2018-12-22T01:27:38.852Z,0.90
2018-12-22T01:30:08.111Z,0.70
2018-12-22T01:32:36.177Z,0.70
2018-12-22T01:35:04.589Z,0.80
2018-12-22T01:37:32.734Z,0.67
2018-12-22T01:40:00.769Z,0.60
2018-12-22T01:42:28.863Z,0.80
2018-12-22T01:44:57.524Z,0.70
2018-12-22T01:47:25.550Z,0.67
2018-12-22T01:49:53.711Z,0.70
2018-12-22T01:52:22.656Z,0.70
2018-12-22T01:54:50.700Z,1.33
2018-12-22T01:57:18.737Z,0.50
2018-12-22T01:59:47.505Z,0.60
2018-12-22T02:02:15.612Z,0.70
2018-12-22T02:04:43.667Z,0.60
2018-12-22T02:07:11.751Z,0.80
2018-12-22T02:09:39.787Z,0.80
2018-12-22T02:12:07.894Z,0.60
2018-12-22T02:14:36.456Z,0.77
2018-12-22T02:17:04.509Z,0.70
2018-12-22T02:19:32.619Z,1.00
2018-12-22T02:22:01.416Z,0.73
2018-12-22T02:24:30.387Z,0.90
2018-12-22T02:26:58.415Z,0.97
2018-12-22T02:29:26.462Z,0.60
2018-12-22T02:31:54.650Z,0.90
2018-12-22T02:34:22.923Z,0.90
2018-12-22T02:36:51.084Z,0.87
2018-12-22T02:39:19.119Z,0.90
2018-12-22T02:41:47.231Z,0.70
2018-12-22T02:44:15.310Z,0.73
2018-12-22T02:46:43.480Z,0.70
2018-12-22T02:49:11.749Z,1.53
2018-12-22T02:51:39.810Z,0.60
2018-12-22T02:54:08.565Z,0.53
2018-12-22T02:56:36.690Z,0.60
2018-12-22T02:59:06.245Z,0.63
2018-12-22T03:01:34.785Z,0.57
2018-12-22T03:04:03.064Z,0.80
2018-12-22T03:06:31.343Z,0.50
2018-12-22T03:08:59.499Z,0.50
2018-12-22T03:11:28.204Z,0.50
2018-12-22T03:13:56.612Z,0.50
2018-12-22T03:16:24.659Z,0.50
2018-12-22T03:18:52.698Z,0.40
2018-12-22T03:21:22.086Z,0.40
2018-12-22T03:23:50.142Z,0.60
2018-12-22T03:26:18.182Z,0.50
2018-12-22T03:28:46.231Z,0.60
2018-12-22T03:31:14.344Z,0.60
2018-12-22T03:33:42.625Z,0.50
2018-12-22T03:36:11.590Z,0.50
2018-12-22T03:38:39.643Z,0.57
2018-12-22T03:41:07.746Z,0.50
2018-12-22T03:43:35.800Z,0.60
2018-12-22T03:46:03.900Z,0.50
2018-12-22T03:48:31.942Z,0.50
2018-12-22T03:51:00.055Z,0.60
2018-12-22T03:53:28.719Z,0.50
2018-12-22T03:55:56.769Z,0.50
2018-12-22T03:58:24.868Z,0.50
2018-12-22T04:00:52.929Z,0.50
2018-12-22T04:03:21.687Z,0.40
2018-12-22T04:05:49.731Z,0.40
2018-12-22T04:08:17.889Z,0.50
2018-12-22T04:10:45.958Z,0.43
2018-12-22T04:13:14.008Z,0.40
2018-12-22T04:15:42.059Z,0.40
2018-12-22T04:18:10.316Z,0.47
2018-12-22T04:20:38.448Z,0.60
2018-12-22T04:23:07.131Z,0.40
2018-12-22T04:25:35.179Z,0.40
2018-12-22T04:28:03.740Z,0.70
2018-12-22T04:30:31.868Z,0.40
2018-12-22T04:32:59.917Z,0.40
2018-12-22T04:35:27.954Z,0.40
2018-12-22T04:37:55.980Z,0.50
2018-12-22T04:40:24.051Z,0.40
2018-12-22T04:42:52.127Z,0.50
2018-12-22T04:45:20.367Z,0.70
2018-12-22T04:47:48.477Z,0.50
2018-12-22T04:50:16.701Z,0.50
2018-12-22T04:52:44.738Z,0.50
2018-12-22T04:55:13.302Z,0.40
2018-12-22T04:57:41.963Z,0.40
2018-12-22T05:00:10.061Z,0.40
2018-12-22T05:02:38.267Z,0.50
2018-12-22T05:05:06.723Z,0.60
2018-12-22T05:07:35.315Z,0.73
2018-12-22T05:10:04.219Z,0.50
2018-12-22T05:12:32.288Z,0.50
2018-12-22T05:15:00.580Z,0.57
2018-12-22T05:17:28.958Z,0.50
2018-12-22T05:19:56.992Z,0.50
2018-12-22T05:22:25.106Z,0.50
2018-12-22T05:24:53.150Z,0.50
2018-12-22T05:27:21.199Z,0.50
2018-12-22T05:29:51.987Z,0.60
2018-12-22T05:32:20.032Z,0.60
2018-12-22T05:34:49.007Z,0.50
2018-12-22T05:37:17.207Z,0.40
2018-12-22T05:39:46.714Z,0.40
2018-12-22T05:42:14.808Z,0.53
2018-12-22T05:44:42.972Z,0.60
2018-12-22T05:47:11.127Z,0.60
2018-12-22T05:49:39.204Z,0.50
2018-12-22T05:52:07.252Z,0.50
2018-12-22T05:54:35.362Z,0.50
2018-12-22T05:57:03.389Z,0.40
2018-12-22T05:59:31.504Z,0.50
2018-12-22T06:01:59.535Z,0.50
2018-12-22T06:04:28.044Z,0.40
2018-12-22T06:06:56.070Z,0.60
2018-12-22T06:09:24.198Z,0.60
2018-12-22T06:11:52.243Z,0.50
2018-12-22T06:14:20.338Z,0.60
2018-12-22T06:16:48.695Z,0.70
2018-12-22T06:19:16.798Z,0.50
2018-12-22T06:21:45.755Z,0.73
2018-12-22T06:24:14.301Z,0.80
2018-12-22T06:26:42.448Z,0.90
2018-12-22T06:29:10.711Z,0.70
2018-12-22T06:31:38.799Z,0.77
2018-12-22T06:34:06.827Z,0.70
2018-12-22T06:36:34.953Z,0.60
2018-12-22T06:39:04.154Z,0.70
2018-12-22T06:41:32.437Z,0.60
2018-12-22T06:44:00.501Z,0.50
2018-12-22T06:46:28.782Z,0.80
2018-12-22T06:48:57.543Z,0.80
2018-12-22T06:51:25.599Z,0.93
2018-12-22T06:53:53.626Z,0.70
2018-12-22T06:56:21.671Z,1.27
2018-12-22T06:58:49.705Z,1.00
2018-12-22T07:01:18.126Z,0.70
2018-12-22T07:03:47.098Z,0.80
2018-12-22T07:06:15.272Z,0.80
2018-12-22T07:08:43.991Z,0.70
2018-12-22T07:11:12.063Z,0.70
2018-12-22T07:13:40.611Z,1.03
2018-12-22T07:16:08.819Z,0.70
2018-12-22T07:18:37.510Z,0.70
2018-12-22T07:21:05.991Z,1.10
2018-12-22T07:23:34.158Z,0.90
2018-12-22T07:26:02.175Z,0.70
2018-12-22T07:28:30.332Z,0.63
2018-12-22T07:30:58.368Z,0.60
2018-12-22T07:33:26.532Z,0.60
2018-12-22T07:35:54.730Z,0.90
2018-12-22T07:38:23.632Z,0.70
2018-12-22T07:40:51.768Z,0.70
2018-12-22T07:43:19.887Z,0.60
2018-12-22T07:45:48.355Z,0.73
2018-12-22T07:48:17.046Z,1.10
2018-12-22T07:50:46.198Z,0.80
2018-12-22T07:53:14.338Z,0.80
2018-12-22T07:55:42.364Z,0.60
2018-12-22T07:58:10.475Z,0.80
2018-12-22T08:00:38.537Z,0.67
2018-12-22T08:03:07.172Z,0.87
2018-12-22T08:05:38.924Z,0.67
2018-12-22T08:08:05.263Z,0.80
2018-12-22T08:10:33.297Z,0.60
2018-12-22T08:13:01.392Z,1.10
2018-12-22T08:15:29.444Z,1.10
2018-12-22T08:17:57.594Z,0.90
2018-12-22T08:20:25.658Z,0.93
2018-12-22T08:22:53.727Z,1.07
2018-12-22T08:25:21.798Z,0.80
2018-12-22T08:27:49.831Z,0.73
2018-12-22T08:30:18.097Z,0.80
2018-12-22T08:32:46.115Z,0.80
2018-12-22T08:35:14.903Z,0.87
2018-12-22T08:37:43.713Z,1.23
2018-12-22T08:40:11.883Z,0.80
2018-12-22T08:42:40.771Z,1.20
2018-12-22T08:45:08.878Z,0.90
2018-12-22T08:47:36.929Z,1.17
2018-12-22T08:50:09.282Z,0.80
2018-12-22T08:52:36.244Z,0.83
2018-12-22T08:55:05.240Z,1.00
2018-12-22T08:57:33.308Z,0.93
2018-12-22T09:00:01.362Z,0.90
2018-12-22T09:02:29.663Z,0.90
2018-12-22T09:04:57.689Z,0.90
2018-12-22T09:07:25.802Z,1.27
2018-12-22T09:09:54.161Z,0.80
2018-12-22T09:12:22.252Z,1.00
2018-12-22T09:14:50.288Z,1.07
2018-12-22T09:17:18.345Z,0.90
2018-12-22T09:19:46.357Z,0.97
2018-12-22T09:22:14.555Z,1.30
2018-12-22T09:24:42.627Z,1.13
2018-12-22T09:27:11.301Z,1.20
2018-12-22T09:29:39.392Z,1.23
2018-12-22T09:32:08.255Z,1.23
2018-12-22T09:34:37.430Z,1.10
2018-12-22T09:37:06.931Z,2.20
2018-12-22T09:39:35.379Z,1.23
2018-12-22T09:42:03.527Z,1.00
2018-12-22T09:44:31.571Z,1.30
2018-12-22T09:47:00.021Z,1.10
2018-12-22T09:49:28.059Z,1.17
2018-12-22T09:51:56.091Z,1.20
2018-12-22T09:54:24.156Z,1.13
2018-12-22T09:56:52.918Z,0.60
2018-12-22T09:59:20.995Z,1.00
2018-12-22T10:01:49.018Z,1.17
2018-12-22T10:04:17.193Z,0.93
2018-12-22T10:06:45.249Z,1.00
2018-12-22T10:09:13.323Z,1.10
2018-12-22T10:11:42.291Z,1.10
2018-12-22T10:14:10.326Z,1.50
2018-12-22T10:16:38.391Z,1.27
2018-12-22T10:19:06.451Z,1.40
2018-12-22T10:21:35.263Z,1.27
2018-12-22T10:24:03.307Z,1.27
2018-12-22T10:26:31.339Z,0.80
2018-12-22T10:28:59.394Z,1.17
2018-12-22T10:31:27.465Z,1.40
2018-12-22T10:33:55.500Z,1.53
2018-12-22T10:36:23.808Z,1.77
2018-12-22T10:38:51.892Z,0.90
2018-12-22T10:41:21.067Z,1.30
2018-12-22T10:43:49.099Z,1.30
2018-12-22T10:46:17.214Z,1.33
2018-12-22T10:48:45.322Z,1.50
2018-12-22T10:51:13.482Z,1.30
2018-12-22T10:53:41.536Z,1.20
2018-12-22T10:56:09.575Z,1.00
2018-12-22T10:58:37.610Z,1.70
2018-12-22T11:01:06.183Z,1.43
2018-12-22T11:03:35.442Z,1.20
2018-12-22T11:06:03.691Z,1.30
2018-12-22T11:08:31.719Z,1.50
2018-12-22T11:10:59.903Z,1.23
2018-12-22T11:13:28.547Z,1.70
2018-12-22T11:15:57.259Z,1.60
2018-12-22T11:18:25.298Z,1.30
2018-12-22T11:20:53.356Z,1.40
2018-12-22T11:23:21.421Z,1.20
2018-12-22T11:25:49.970Z,1.03
2018-12-22T11:28:18.008Z,1.20
2018-12-22T11:30:46.115Z,1.57
2018-12-22T11:33:14.397Z,2.60
2018-12-22T11:35:42.463Z,1.33
2018-12-22T11:38:10.544Z,1.40
2018-12-22T11:40:38.571Z,0.97
2018-12-22T11:43:06.612Z,1.43
2018-12-22T11:45:35.215Z,1.17
2018-12-22T11:48:06.026Z,0.83
2018-12-22T11:50:34.224Z,1.53
2018-12-22T11:53:02.350Z,1.47
2018-12-22T11:55:30.418Z,1.30
2018-12-22T11:57:58.496Z,1.17
2018-12-22T12:00:26.541Z,1.10
2018-12-22T12:02:55.258Z,1.90
2018-12-22T12:05:23.307Z,2.63
2018-12-22T12:07:51.416Z,0.90
2018-12-22T12:10:19.452Z,1.47
2018-12-22T12:12:47.551Z,0.80
2018-12-22T12:15:17.266Z,0.90
2018-12-22T12:21:00.531Z,1.00
2018-12-22T12:23:28.591Z,0.70
2018-12-22T12:25:56.636Z,0.93
2018-12-22T12:28:24.850Z,1.10
2018-12-22T12:30:52.925Z,0.93
2018-12-22T12:33:21.006Z,1.00
2018-12-22T12:35:49.033Z,2.50
2018-12-22T12:38:17.104Z,1.07
2018-12-22T12:40:45.154Z,0.70
2018-12-22T12:43:13.278Z,0.90
2018-12-22T12:45:41.670Z,1.23
2018-12-22T12:48:09.760Z,0.70
2018-12-22T12:50:38.494Z,1.37
2018-12-22T12:53:09.760Z,1.27
2018-12-22T12:55:38.123Z,1.00
2018-12-22T12:58:07.338Z,0.77
2018-12-22T13:00:35.630Z,1.10
2018-12-22T13:03:03.727Z,1.10
2018-12-22T13:05:31.863Z,1.50
2018-12-22T13:08:00.272Z,1.10
2018-12-22T13:10:28.319Z,1.37
2018-12-22T13:12:59.778Z,0.97
2018-12-22T13:15:28.266Z,1.37
2018-12-22T13:17:56.328Z,1.10
2018-12-22T13:20:24.803Z,1.20
2018-12-22T13:22:53.617Z,1.70
2018-12-22T13:25:21.721Z,1.37
2018-12-22T13:27:49.847Z,1.10
2018-12-22T13:30:18.436Z,1.57
2018-12-22T13:32:46.492Z,1.10
2018-12-22T13:35:14.580Z,1.93
2018-12-22T13:37:42.645Z,1.30
2018-12-22T13:40:12.215Z,1.30
2018-12-22T13:42:40.266Z,2.10
2018-12-22T13:45:09.624Z,1.70
2018-12-22T13:47:37.883Z,1.47
2018-12-22T13:50:09.556Z,1.73
2018-12-22T13:52:37.803Z,1.53
2018-12-22T13:55:07.496Z,1.53
2018-12-22T13:57:35.550Z,1.53
2018-12-22T14:00:05.564Z,1.57
2018-12-22T14:02:35.124Z,1.67
2018-12-22T14:05:03.435Z,1.40
2018-12-22T14:07:31.470Z,2.20
2018-12-22T14:09:59.520Z,1.80
2018-12-22T14:12:27.632Z,1.30
2018-12-22T14:14:55.675Z,1.00
2018-12-22T14:17:23.742Z,1.50
2018-12-22T14:19:51.863Z,1.47
2018-12-22T14:22:19.926Z,1.30
2018-12-22T14:24:47.974Z,1.57
2018-12-22T14:27:16.020Z,1.30
2018-12-22T14:29:44.074Z,2.03
2018-12-22T14:32:12.124Z,1.47
2018-12-22T14:34:40.642Z,1.50
2018-12-22T14:37:08.859Z,1.23
2018-12-22T14:39:36.936Z,1.40
2018-12-22T14:42:05.010Z,1.20
2018-12-22T14:44:33.035Z,1.53
2018-12-22T14:47:01.119Z,1.20
2018-12-22T14:49:29.181Z,1.23
2018-12-22T14:51:57.216Z,1.30
2018-12-22T14:54:25.263Z,1.30
2018-12-22T14:56:53.294Z,0.90
2018-12-22T14:59:21.412Z,1.60
2018-12-22T15:01:49.478Z,1.17
2018-12-22T15:04:17.516Z,1.17
2018-12-22T15:06:45.582Z,1.00
2018-12-22T15:09:13.685Z,1.50
2018-12-22T15:11:41.935Z,1.40
2018-12-22T15:14:09.994Z,1.20
2018-12-22T15:16:38.037Z,1.60
2018-12-22T15:19:06.079Z,1.03
2018-12-22T15:21:34.148Z,1.43
2018-12-22T15:24:02.184Z,1.17
2018-12-22T15:26:30.655Z,1.30
2018-12-22T15:28:58.727Z,1.47
2018-12-22T15:31:26.784Z,1.40
2018-12-22T15:33:54.880Z,1.37
2018-12-22T15:36:22.967Z,1.37
2018-12-22T15:38:51.011Z,1.47
2018-12-22T15:41:19.119Z,1.30
2018-12-22T15:43:47.243Z,1.80
2018-12-22T15:46:15.619Z,1.43
2018-12-22T15:48:43.661Z,1.40
2018-12-22T15:51:11.709Z,1.77
2018-12-22T15:53:39.792Z,1.40
2018-12-22T15:56:07.859Z,1.53
2018-12-22T15:58:35.905Z,1.27
2018-12-22T16:01:03.927Z,2.70
2018-12-22T16:03:31.982Z,2.00
2018-12-22T16:06:00.270Z,1.70
2018-12-22T16:08:28.343Z,1.90
2018-12-22T16:10:56.368Z,2.23
2018-12-22T16:13:24.431Z,2.93
2018-12-22T16:15:52.449Z,2.10
2018-12-22T16:18:20.497Z,1.90
2018-12-22T16:20:48.532Z,2.10
2018-12-22T16:23:16.606Z,1.57
2018-12-22T16:25:44.659Z,2.00
2018-12-22T16:28:12.826Z,2.10
2018-12-22T16:30:42.802Z,2.10
2018-12-22T16:33:10.863Z,2.20
2018-12-22T16:35:38.963Z,1.80
2018-12-22T16:38:06.994Z,2.00
2018-12-22T16:40:35.062Z,2.43
2018-12-22T16:43:04.738Z,1.90
2018-12-22T16:45:32.783Z,2.13
2018-12-22T16:48:00.838Z,2.17
2018-12-22T16:50:30.067Z,1.63
2018-12-22T16:52:58.119Z,2.20
2018-12-22T16:55:26.192Z,3.20
2018-12-22T16:57:55.880Z,1.80
2018-12-22T17:00:25.569Z,2.80
2018-12-22T17:02:54.095Z,2.30
2018-12-22T17:05:22.191Z,2.23
2018-12-22T17:07:50.233Z,3.90
2018-12-22T17:10:18.332Z,2.67
2018-12-22T17:12:46.398Z,2.63
2018-12-22T17:15:21.850Z,2.83
2018-12-22T17:17:44.937Z,1.93
2018-12-22T17:20:14.039Z,2.53
2018-12-22T17:22:50.755Z,1.80
2018-12-22T17:25:18.799Z,1.43
2018-12-22T17:27:46.855Z,1.80
2018-12-22T17:30:14.896Z,2.50
2018-12-22T17:32:42.954Z,1.70
2018-12-22T17:35:12.054Z,2.40
2018-12-22T17:37:40.095Z,1.53
2018-12-22T17:40:09.653Z,2.00
2018-12-22T17:42:38.046Z,1.67
2018-12-22T17:45:07.710Z,1.57
2018-12-22T17:47:35.781Z,1.93
2018-12-22T17:50:04.710Z,1.70
2018-12-22T17:52:32.996Z,1.57
2018-12-22T17:55:01.784Z,1.77
2018-12-22T17:57:29.858Z,2.40
2018-12-22T17:59:57.883Z,2.60
2018-12-22T18:02:25.933Z,2.60
2018-12-22T18:04:53.983Z,1.90
2018-12-22T18:07:22.027Z,1.70
2018-12-22T18:09:50.094Z,9.00
2018-12-22T18:12:18.111Z,1.97
2018-12-22T18:14:46.150Z,1.53
2018-12-22T18:17:14.216Z,2.20
2018-12-22T18:19:42.260Z,1.67
2018-12-22T18:22:10.332Z,1.77
2018-12-22T18:24:38.388Z,2.13
2018-12-22T18:27:06.427Z,2.17
2018-12-22T18:29:34.470Z,2.50
2018-12-22T18:32:02.584Z,1.63
2018-12-22T18:34:30.700Z,2.63
2018-12-22T18:36:58.741Z,2.37
2018-12-22T18:39:26.811Z,3.23
2018-12-22T18:41:54.879Z,2.60
2018-12-22T18:44:23.172Z,2.70
2018-12-22T18:46:51.217Z,2.40
2018-12-22T18:49:19.279Z,2.60
2018-12-22T18:51:47.323Z,2.03
2018-12-22T18:54:15.454Z,2.70
2018-12-22T18:56:44.117Z,2.53
2018-12-22T18:59:12.207Z,2.60
2018-12-22T19:01:40.261Z,2.43
2018-12-22T19:04:08.310Z,3.30
2018-12-22T19:06:36.367Z,2.00
2018-12-22T19:09:06.171Z,2.40
2018-12-22T19:11:34.224Z,2.50
2018-12-22T19:14:02.280Z,2.47
2018-12-22T19:16:30.331Z,2.93
2018-12-22T19:18:58.368Z,3.83
2018-12-22T19:21:26.420Z,2.50
2018-12-22T19:23:54.455Z,4.60
2018-12-22T19:26:22.524Z,4.03
2018-12-22T19:28:50.568Z,3.10
2018-12-22T19:31:18.601Z,3.77
2018-12-22T19:33:53.398Z,3.13
2018-12-22T19:36:16.786Z,3.20
2018-12-22T19:38:44.806Z,3.00
2018-12-22T19:41:12.872Z,3.53
2018-12-22T19:43:40.892Z,2.27
2018-12-22T19:46:09.306Z,2.97
2018-12-22T19:48:37.352Z,3.00
2018-12-22T19:51:05.433Z,2.63
2018-12-22T19:53:33.700Z,2.13
2018-12-22T19:56:01.759Z,3.10
2018-12-22T19:58:29.828Z,3.43
2018-12-22T20:00:57.880Z,3.03
2018-12-22T20:03:25.948Z,3.03
2018-12-22T20:05:54.000Z,2.40
2018-12-22T20:08:22.059Z,2.30
2018-12-22T20:10:50.145Z,2.23
2018-12-22T20:13:18.576Z,1.70
2018-12-22T20:15:46.594Z,2.33
2018-12-22T20:18:14.673Z,1.70
2018-12-22T20:20:42.703Z,2.00
2018-12-22T20:23:10.783Z,1.83
2018-12-22T20:25:38.816Z,1.80
2018-12-22T20:28:07.591Z,1.60
2018-12-22T20:30:35.650Z,1.87
2018-12-22T20:33:03.714Z,1.33
2018-12-22T20:35:31.771Z,1.73
2018-12-22T20:37:59.812Z,1.87
2018-12-22T20:40:27.846Z,1.73
2018-12-22T20:42:55.920Z,1.77
2018-12-22T20:45:23.960Z,2.10
2018-12-22T20:47:51.999Z,2.10
2018-12-22T20:50:20.054Z,2.00
2018-12-22T20:52:48.103Z,1.60
2018-12-22T20:55:16.146Z,1.90
2018-12-22T20:57:44.180Z,2.00
2018-12-22T21:00:12.250Z,2.00
2018-12-22T21:02:40.297Z,2.47
2018-12-22T21:05:08.356Z,2.03
2018-12-22T21:07:36.410Z,2.67
2018-12-22T21:10:04.539Z,2.50
2018-12-22T21:12:32.585Z,3.63
2018-12-22T21:15:00.712Z,3.23
2018-12-22T21:17:28.995Z,3.27
2018-12-22T21:19:57.063Z,3.23
2018-12-22T21:22:25.144Z,2.87
2018-12-22T21:24:53.193Z,2.20
2018-12-22T21:27:21.232Z,2.47
2018-12-22T21:29:49.412Z,2.77
2018-12-22T21:32:17.712Z,2.73
2018-12-22T21:34:45.776Z,3.33
2018-12-22T21:37:13.827Z,3.03
2018-12-22T21:39:41.895Z,2.93
2018-12-22T21:42:09.963Z,2.80
2018-12-22T21:44:38.029Z,2.40
2018-12-22T21:47:06.097Z,3.10
2018-12-22T21:49:34.271Z,2.60
2018-12-22T21:52:02.328Z,3.03
2018-12-22T21:54:30.383Z,2.80
2018-12-22T21:56:58.443Z,2.50
2018-12-22T21:59:26.481Z,3.10
2018-12-22T22:01:54.562Z,2.13
2018-12-22T22:04:22.620Z,2.37
2018-12-22T22:06:50.675Z,4.30
2018-12-22T22:09:19.338Z,2.57
2018-12-22T22:11:47.731Z,2.70
2018-12-22T22:14:15.806Z,2.70
2018-12-22T22:16:43.870Z,2.67
2018-12-22T22:19:11.961Z,2.20
2018-12-22T22:21:39.995Z,2.53
2018-12-22T22:24:08.063Z,2.23
2018-12-22T22:26:36.098Z,2.80
2018-12-22T22:29:04.161Z,2.90
2018-12-22T22:31:32.191Z,2.13
2018-12-22T22:34:00.281Z,2.43
2018-12-22T22:36:28.335Z,2.67
2018-12-22T22:38:56.411Z,1.83
2018-12-22T22:41:24.490Z,2.10
2018-12-22T22:43:52.532Z,3.03
2018-12-22T22:46:20.564Z,2.80
2018-12-22T22:48:48.659Z,2.47
2018-12-22T22:51:16.698Z,2.03
2018-12-22T22:53:44.751Z,2.73
2018-12-22T22:56:12.832Z,1.60
2018-12-22T22:58:40.891Z,1.80
2018-12-22T23:01:09.190Z,1.93
2018-12-22T23:03:37.251Z,1.90
2018-12-22T23:06:05.299Z,2.40
2018-12-22T23:08:33.316Z,1.80
2018-12-22T23:11:01.385Z,2.30
2018-12-22T23:13:29.479Z,2.73
2018-12-22T23:15:57.593Z,1.83
2018-12-22T23:18:25.730Z,2.07
2018-12-22T23:20:53.792Z,2.13
2018-12-22T23:23:21.848Z,2.00
2018-12-22T23:25:49.903Z,2.60
2018-12-22T23:28:17.952Z,1.77
2018-12-22T23:30:46.026Z,1.70
2018-12-22T23:33:14.088Z,2.13
2018-12-22T23:35:42.228Z,1.57
2018-12-22T23:38:10.296Z,2.50
2018-12-22T23:40:38.371Z,1.70
2018-12-22T23:43:06.427Z,1.73
2018-12-22T23:45:34.473Z,2.20
2018-12-22T23:48:02.515Z,2.13
2018-12-22T23:50:30.590Z,1.90
2018-12-22T23:52:58.683Z,2.27
2018-12-22T23:55:26.772Z,1.87
2018-12-22T23:57:54.831Z,3.03
